createdAt,value
2018-01-07T00:00:37.324Z,92.47
2018-01-07T00:02:30.173Z,92.18
2018-01-07T00:03:30.104Z,92.66
2018-01-07T00:05:23.051Z,92.56
2018-01-07T00:06:23.023Z,92.75
2018-01-07T00:08:15.969Z,92.75
2018-01-07T00:09:15.924Z,92.28
2018-01-07T00:11:08.848Z,92.37
2018-01-07T00:12:08.808Z,92.37
2018-01-07T00:14:01.849Z,93.04
2018-01-07T00:15:01.648Z,92.75
2018-01-07T00:16:54.653Z,93.13
2018-01-07T00:17:54.562Z,93.32
2018-01-07T00:19:47.534Z,92.75
2018-01-07T00:20:47.487Z,93.13
2018-01-07T00:22:40.732Z,93.23
2018-01-07T00:23:40.575Z,93.41
2018-01-07T00:25:33.517Z,93.41
2018-01-07T00:26:33.484Z,93.32
2018-01-07T00:28:26.442Z,93.32
2018-01-07T00:29:26.418Z,93.23
2018-01-07T00:31:19.523Z,93.13
2018-01-07T00:32:19.469Z,93.23
2018-01-07T00:34:12.562Z,93.51
2018-01-07T00:35:12.374Z,93.51
2018-01-07T00:37:05.316Z,93.32
2018-01-07T00:38:05.287Z,93.41
2018-01-07T00:39:58.433Z,93.51
2018-01-07T00:40:58.362Z,93.70
2018-01-07T00:42:51.318Z,93.89
2018-01-07T00:43:51.270Z,93.70
2018-01-07T00:45:44.269Z,93.41
2018-01-07T00:46:44.201Z,93.51
2018-01-07T00:48:37.020Z,93.70
2018-01-07T00:49:36.994Z,93.70
2018-01-07T00:51:29.928Z,93.60
2018-01-07T00:52:29.771Z,93.41
2018-01-07T00:54:22.733Z,93.89
2018-01-07T00:55:22.654Z,93.89
2018-01-07T00:57:15.618Z,93.70
2018-01-07T00:58:15.591Z,93.89
2018-01-07T01:00:08.730Z,93.51
2018-01-07T01:01:08.654Z,94.37
2018-01-07T01:03:01.468Z,94.51
2018-01-07T01:04:01.413Z,93.84
2018-01-07T01:05:54.365Z,94.03
2018-01-07T01:06:54.334Z,94.42
2018-01-07T01:08:47.140Z,93.84
2018-01-07T01:09:47.088Z,94.32
2018-01-07T01:11:40.208Z,94.32
2018-01-07T01:12:40.164Z,93.84
2018-01-07T01:14:33.095Z,94.60
2018-01-07T01:15:33.042Z,94.23
2018-01-07T01:17:26.118Z,94.13
2018-01-07T01:18:26.053Z,94.32
2018-01-07T01:20:18.871Z,93.46
2018-01-07T01:21:18.830Z,93.56
2018-01-07T01:23:11.807Z,93.65
2018-01-07T01:24:11.744Z,94.03
2018-01-07T01:26:04.694Z,93.56
2018-01-07T01:27:04.673Z,94.13
2018-01-07T01:28:57.614Z,94.23
2018-01-07T01:29:57.561Z,93.46
2018-01-07T01:31:50.407Z,94.03
2018-01-07T01:32:50.348Z,93.46
2018-01-07T01:34:43.318Z,93.75
2018-01-07T01:35:43.268Z,94.13
2018-01-07T01:37:36.204Z,93.94
2018-01-07T01:38:36.153Z,94.42
2018-01-07T01:40:29.258Z,94.89
2018-01-07T01:41:29.203Z,94.70
2018-01-07T01:43:22.023Z,95.17
2018-01-07T01:44:21.957Z,95.46
2018-01-07T01:46:14.910Z,95.27
2018-01-07T01:47:14.861Z,95.17
2018-01-07T01:49:07.829Z,95.65
2018-01-07T01:50:07.762Z,95.84
2018-01-07T01:52:00.884Z,96.12
2018-01-07T01:53:00.839Z,96.03
2018-01-07T01:54:53.817Z,96.12
2018-01-07T01:55:53.760Z,96.78
2018-01-07T01:57:46.549Z,96.88
2018-01-07T01:58:46.520Z,97.17
2018-01-07T02:00:39.705Z,97.07
2018-01-07T02:01:39.633Z,96.92
2018-01-07T02:03:32.423Z,96.22
2018-01-07T02:04:32.390Z,96.69
2018-01-07T02:06:25.357Z,96.45
2018-01-07T02:07:25.279Z,96.55
2018-01-07T02:09:18.232Z,96.92
2018-01-07T02:10:18.194Z,97.21
2018-01-07T02:12:11.014Z,97.02
2018-01-07T02:13:10.949Z,97.02
2018-01-07T02:15:03.915Z,97.21
2018-01-07T02:16:03.869Z,97.02
2018-01-07T02:17:56.833Z,97.12
2018-01-07T02:18:56.767Z,97.02
2018-01-07T02:20:49.718Z,97.50
2018-01-07T02:21:49.660Z,97.69
2018-01-07T02:23:42.478Z,97.31
2018-01-07T02:24:42.434Z,97.59
2018-01-07T02:26:35.422Z,98.16
2018-01-07T02:27:35.365Z,97.88
2018-01-07T02:29:28.168Z,98.25
2018-01-07T02:30:28.128Z,97.78
2018-01-07T02:32:21.087Z,97.59
2018-01-07T02:33:21.028Z,98.07
2018-01-07T02:35:14.194Z,97.59
2018-01-07T02:36:14.128Z,98.07
2018-01-07T02:38:06.932Z,98.16
2018-01-07T02:39:06.873Z,98.44
2018-01-07T02:40:59.818Z,98.25
2018-01-07T02:41:59.779Z,97.97
2018-01-07T02:43:52.585Z,98.16
2018-01-07T02:44:52.525Z,98.25
2018-01-07T02:46:45.381Z,98.07
2018-01-07T02:47:45.304Z,98.11
2018-01-07T02:49:38.110Z,98.16
2018-01-07T02:50:38.070Z,99.01
2018-01-07T02:52:31.029Z,98.25
2018-01-07T02:53:30.970Z,98.44
2018-01-07T02:55:23.893Z,98.35
2018-01-07T02:56:24.005Z,98.02
2018-01-07T02:58:16.810Z,97.97
2018-01-07T02:59:16.759Z,98.39
2018-01-07T03:01:09.561Z,98.35
2018-01-07T03:02:09.524Z,98.25
2018-01-07T03:04:02.488Z,98.16
2018-01-07T03:05:02.420Z,97.54
2018-01-07T03:06:55.358Z,98.02
2018-01-07T03:07:55.321Z,97.54
2018-01-07T03:09:48.314Z,98.21
2018-01-07T03:10:48.249Z,98.49
2018-01-07T03:12:41.054Z,98.30
2018-01-07T03:13:41.013Z,99.15
2018-01-07T03:15:33.990Z,98.49
2018-01-07T03:16:33.929Z,98.39
2018-01-07T03:18:26.848Z,98.87
2018-01-07T03:19:26.830Z,98.58
2018-01-07T03:21:19.768Z,98.49
2018-01-07T03:22:19.723Z,98.30
2018-01-07T03:24:12.593Z,98.77
2018-01-07T03:25:12.525Z,98.68
2018-01-07T03:27:05.473Z,98.30
2018-01-07T03:28:05.437Z,98.21
2018-01-07T03:29:58.244Z,98.30
2018-01-07T03:30:58.195Z,98.49
2018-01-07T03:32:51.158Z,98.02
2018-01-07T03:33:51.118Z,98.02
2018-01-07T03:35:44.027Z,97.73
2018-01-07T03:36:43.971Z,97.92
2018-01-07T03:38:36.925Z,98.30
2018-01-07T03:39:36.884Z,98.49
2018-01-07T03:41:29.839Z,98.11
2018-01-07T03:42:29.908Z,97.26
2018-01-07T03:44:22.710Z,97.16
2018-01-07T03:45:22.678Z,96.97
2018-01-07T03:47:15.497Z,97.16
2018-01-07T03:48:15.439Z,97.54
2018-01-07T03:50:08.340Z,97.35
2018-01-07T03:51:08.207Z,97.54
2018-01-07T03:53:01.154Z,97.07
2018-01-07T03:54:01.108Z,97.26
2018-01-07T03:55:54.058Z,96.88
2018-01-07T03:56:54.014Z,97.26
2018-01-07T03:58:47.214Z,96.78
2018-01-07T03:59:47.149Z,96.97
2018-01-07T04:01:40.109Z,95.74
2018-01-07T04:02:40.055Z,95.93
2018-01-07T04:04:33.010Z,96.22
2018-01-07T04:05:32.963Z,96.41
2018-01-07T04:07:25.805Z,96.59
2018-01-07T04:08:25.754Z,96.41
2018-01-07T04:10:18.573Z,96.12
2018-01-07T04:11:18.513Z,96.22
2018-01-07T04:13:11.480Z,96.41
2018-01-07T04:14:11.423Z,95.93
2018-01-07T04:16:04.358Z,95.26
2018-01-07T04:17:04.318Z,95.07
2018-01-07T04:18:57.484Z,95.55
2018-01-07T04:19:57.430Z,95.45
2018-01-07T04:21:50.371Z,95.45
2018-01-07T04:22:50.324Z,95.65
2018-01-07T04:24:43.304Z,95.17
2018-01-07T04:25:43.237Z,94.98
2018-01-07T04:27:36.339Z,95.36
2018-01-07T04:28:36.305Z,94.79
2018-01-07T04:30:29.236Z,95.55
2018-01-07T04:31:29.171Z,95.65
2018-01-07T04:33:22.165Z,95.65
2018-01-07T04:34:22.105Z,95.17
2018-01-07T04:36:15.264Z,95.65
2018-01-07T04:37:15.176Z,95.55
2018-01-07T04:39:08.104Z,95.45
2018-01-07T04:40:08.044Z,95.55
2018-01-07T04:42:01.035Z,95.74
2018-01-07T04:43:00.973Z,95.84
2018-01-07T04:44:54.167Z,95.65
2018-01-07T04:45:54.064Z,95.26
2018-01-07T04:47:46.988Z,95.45
2018-01-07T04:48:46.945Z,95.74
2018-01-07T04:50:39.905Z,95.45
2018-01-07T04:51:39.845Z,95.17
2018-01-07T04:53:32.655Z,95.45
2018-01-07T04:54:32.610Z,95.26
2018-01-07T04:56:25.632Z,95.36
2018-01-07T04:57:25.514Z,95.07
2018-01-07T04:59:18.469Z,95.36
2018-01-07T05:00:18.421Z,94.89
2018-01-07T05:02:11.428Z,94.60
2018-01-07T05:03:11.350Z,95.07
2018-01-07T05:05:04.152Z,95.26
2018-01-07T05:06:04.120Z,95.07
2018-01-07T05:07:57.184Z,94.70
2018-01-07T05:08:57.109Z,94.70
2018-01-07T05:10:50.073Z,94.42
2018-01-07T05:11:50.041Z,94.70
2018-01-07T05:13:42.955Z,93.94
2018-01-07T05:14:42.915Z,94.70
2018-01-07T05:16:36.030Z,94.51
2018-01-07T05:17:35.979Z,94.70
2018-01-07T05:19:28.798Z,94.70
2018-01-07T05:20:28.731Z,94.23
2018-01-07T05:22:21.544Z,93.84
2018-01-07T05:23:21.494Z,94.13
2018-01-07T05:25:14.443Z,93.84
2018-01-07T05:26:14.384Z,93.94
2018-01-07T05:28:07.238Z,94.23
2018-01-07T05:29:07.191Z,94.04
2018-01-07T05:31:00.128Z,94.42
2018-01-07T05:32:00.088Z,94.37
2018-01-07T05:33:53.033Z,93.65
2018-01-07T05:34:52.988Z,93.46
2018-01-07T05:36:45.946Z,94.23
2018-01-07T05:37:45.881Z,94.04
2018-01-07T05:39:38.698Z,93.37
2018-01-07T05:40:38.628Z,93.37
2018-01-07T05:42:31.573Z,93.37
2018-01-07T05:43:31.541Z,92.99
2018-01-07T05:45:24.501Z,93.13
2018-01-07T05:46:24.450Z,93.13
2018-01-07T05:48:17.381Z,92.99
2018-01-07T05:49:17.349Z,93.18
2018-01-07T05:51:10.174Z,93.04
2018-01-07T05:52:10.102Z,93.23
2018-01-07T05:54:03.049Z,92.99
2018-01-07T05:55:03.023Z,92.71
2018-01-07T05:56:55.983Z,92.71
2018-01-07T05:57:55.940Z,92.66
2018-01-07T05:59:48.892Z,92.85
2018-01-07T06:00:48.835Z,92.66
2018-01-07T06:02:41.884Z,92.71
2018-01-07T06:03:41.850Z,93.18
2018-01-07T06:05:34.810Z,92.80
2018-01-07T06:06:34.745Z,92.61
2018-01-07T06:08:27.698Z,92.57
2018-01-07T06:09:27.651Z,92.18
2018-01-07T06:11:20.474Z,92.18
2018-01-07T06:12:20.444Z,92.18
2018-01-07T06:14:13.314Z,92.09
2018-01-07T06:15:13.196Z,92.04
2018-01-07T06:17:06.139Z,92.14
2018-01-07T06:18:06.089Z,92.04
2018-01-07T06:19:59.074Z,92.23
2018-01-07T06:20:59.032Z,91.95
2018-01-07T06:22:52.218Z,91.66
2018-01-07T06:23:52.109Z,92.23
2018-01-07T06:25:45.082Z,92.14
2018-01-07T06:26:45.015Z,91.95
2018-01-07T06:28:37.961Z,91.57
2018-01-07T06:29:37.926Z,91.66
2018-01-07T06:31:31.074Z,91.66
2018-01-07T06:32:30.994Z,91.66
2018-01-07T06:34:23.981Z,91.57
2018-01-07T06:35:23.924Z,92.42
2018-01-07T06:37:16.872Z,91.66
2018-01-07T06:38:16.852Z,91.85
2018-01-07T06:40:09.752Z,91.85
2018-01-07T06:41:09.669Z,91.66
2018-01-07T06:43:02.643Z,91.00
2018-01-07T06:44:02.577Z,90.91
2018-01-07T06:45:55.524Z,91.38
2018-01-07T06:46:55.489Z,90.62
2018-01-07T06:48:48.755Z,90.62
2018-01-07T06:49:48.579Z,90.43
2018-01-07T06:51:41.691Z,90.24
2018-01-07T06:52:41.646Z,91.09
2018-01-07T06:54:34.594Z,90.53
2018-01-07T06:55:34.541Z,90.72
2018-01-07T06:57:27.347Z,90.81
2018-01-07T06:58:27.310Z,90.43
2018-01-07T07:00:20.282Z,91.00
2018-01-07T07:01:20.063Z,90.91
2018-01-07T07:03:12.992Z,89.86
2018-01-07T07:04:12.950Z,90.43
2018-01-07T07:06:05.909Z,90.34
2018-01-07T07:07:05.849Z,90.15
2018-01-07T07:08:59.295Z,90.53
2018-01-07T07:09:58.940Z,90.62
2018-01-07T07:11:51.892Z,90.81
2018-01-07T07:12:51.844Z,90.91
2018-01-07T07:14:44.795Z,91.19
2018-01-07T07:15:44.739Z,90.53
2018-01-07T07:17:37.960Z,90.53
2018-01-07T07:18:37.825Z,90.72
2018-01-07T07:20:30.800Z,90.43
2018-01-07T07:21:30.724Z,90.05
2018-01-07T07:23:23.667Z,90.53
2018-01-07T07:24:23.638Z,90.05
2018-01-07T07:26:16.811Z,90.53
2018-01-07T07:27:16.701Z,89.86
2018-01-07T07:29:09.812Z,90.15
2018-01-07T07:30:09.783Z,90.53
2018-01-07T07:32:03.072Z,90.15
2018-01-07T07:33:02.907Z,90.53
2018-01-07T07:34:55.857Z,90.34
2018-01-07T07:35:55.824Z,90.43
2018-01-07T07:37:48.800Z,90.43
2018-01-07T07:38:48.744Z,90.24
2018-01-07T07:40:41.936Z,90.05
2018-01-07T07:41:41.825Z,90.72
2018-01-07T07:43:34.784Z,90.24
2018-01-07T07:44:34.730Z,90.05
2018-01-07T07:46:27.681Z,89.96
2018-01-07T07:47:27.624Z,90.05
2018-01-07T07:49:20.451Z,90.34
2018-01-07T07:50:20.394Z,90.43
2018-01-07T07:52:13.357Z,89.96
2018-01-07T07:53:13.186Z,89.96
2018-01-07T07:55:06.151Z,90.15
2018-01-07T07:56:06.101Z,89.86
2018-01-07T07:57:59.056Z,89.96
2018-01-07T07:58:59.043Z,90.15
2018-01-07T08:00:52.116Z,89.96
2018-01-07T08:01:52.070Z,89.96
2018-01-07T08:03:45.022Z,90.05
2018-01-07T08:04:44.965Z,90.43
2018-01-07T08:06:37.926Z,90.15
2018-01-07T08:07:37.885Z,90.15
2018-01-07T08:09:31.119Z,90.34
2018-01-07T08:10:30.989Z,90.34
2018-01-07T08:12:23.964Z,89.48
2018-01-07T08:13:23.920Z,89.86
2018-01-07T08:15:16.880Z,89.67
2018-01-07T08:16:16.831Z,89.67
2018-01-07T08:18:09.673Z,89.20
2018-01-07T08:19:09.609Z,89.58
2018-01-07T08:21:02.597Z,89.58
2018-01-07T08:22:02.529Z,89.96
2018-01-07T08:23:55.484Z,89.01
2018-01-07T08:24:55.433Z,89.29
2018-01-07T08:26:48.376Z,89.39
2018-01-07T08:27:48.336Z,89.20
2018-01-07T08:29:41.171Z,89.20
2018-01-07T08:30:41.110Z,89.48
2018-01-07T08:32:34.096Z,89.20
2018-01-07T08:33:34.049Z,89.29
2018-01-07T08:35:27.022Z,88.73
2018-01-07T08:36:26.945Z,89.58
2018-01-07T08:38:19.894Z,88.44
2018-01-07T08:39:19.855Z,88.63
2018-01-07T08:41:12.737Z,88.63
2018-01-07T08:42:12.656Z,88.44
2018-01-07T08:44:05.580Z,89.39
2018-01-07T08:45:05.542Z,88.92
2018-01-07T08:46:58.375Z,88.73
2018-01-07T08:47:58.302Z,88.44
2018-01-07T08:49:51.256Z,88.54
2018-01-07T08:50:51.206Z,89.25
2018-01-07T08:52:44.442Z,88.20
2018-01-07T08:53:44.279Z,88.35
2018-01-07T08:55:37.256Z,88.39
2018-01-07T08:56:37.190Z,88.29
2018-01-07T08:58:30.121Z,87.97
2018-01-07T08:59:30.087Z,88.10
2018-01-07T09:01:23.371Z,88.10
2018-01-07T09:02:23.317Z,87.82
2018-01-07T09:04:16.265Z,87.45
2018-01-07T09:05:16.219Z,87.16
2018-01-07T09:07:09.537Z,87.45
2018-01-07T09:08:09.282Z,87.06
2018-01-07T09:10:02.248Z,87.25
2018-01-07T09:11:02.199Z,87.25
2018-01-07T09:12:55.175Z,87.16
2018-01-07T09:13:55.142Z,87.54
2018-01-07T09:15:48.321Z,87.35
2018-01-07T09:16:48.231Z,87.73
2018-01-07T09:18:41.338Z,87.45
2018-01-07T09:19:41.300Z,87.54
2018-01-07T09:21:34.228Z,87.25
2018-01-07T09:22:34.181Z,87.25
2018-01-07T09:24:27.160Z,87.45
2018-01-07T09:25:26.989Z,87.73
2018-01-07T09:27:19.960Z,86.87
2018-01-07T09:28:19.887Z,87.06
2018-01-07T09:30:12.850Z,87.45
2018-01-07T09:31:12.826Z,87.45
2018-01-07T09:33:05.965Z,87.06
2018-01-07T09:34:05.870Z,86.49
2018-01-07T09:35:58.811Z,86.30
2018-01-07T09:36:58.774Z,86.49
2018-01-07T09:38:51.736Z,86.30
2018-01-07T09:39:51.681Z,86.11
2018-01-07T09:41:44.802Z,86.49
2018-01-07T09:42:44.756Z,86.68
2018-01-07T09:44:37.730Z,86.40
2018-01-07T09:45:37.673Z,86.49
2018-01-07T09:47:30.624Z,86.02
2018-01-07T09:48:30.588Z,86.68
2018-01-07T09:50:23.626Z,86.30
2018-01-07T09:51:23.361Z,86.02
2018-01-07T09:53:16.148Z,86.11
2018-01-07T09:54:16.102Z,86.02
2018-01-07T09:56:09.082Z,86.49
2018-01-07T09:57:09.030Z,86.02
2018-01-07T09:59:01.996Z,86.02
2018-01-07T10:00:02.032Z,86.02
2018-01-07T10:01:54.892Z,86.49
2018-01-07T10:02:54.840Z,86.49
2018-01-07T10:04:47.847Z,85.64
2018-01-07T10:05:47.631Z,85.07
2018-01-07T10:07:40.611Z,85.93
2018-01-07T10:08:40.560Z,84.88
2018-01-07T10:10:33.530Z,84.98
2018-01-07T10:11:33.461Z,85.64
2018-01-07T10:13:26.619Z,85.17
2018-01-07T10:14:26.563Z,84.69
2018-01-07T10:16:19.531Z,85.45
2018-01-07T10:17:19.479Z,84.98
2018-01-07T10:19:12.415Z,85.45
2018-01-07T10:20:12.463Z,84.88
2018-01-07T10:22:05.627Z,84.41
2018-01-07T10:23:05.452Z,84.78
2018-01-07T10:24:58.397Z,84.59
2018-01-07T10:25:58.366Z,85.17
2018-01-07T10:27:51.361Z,84.50
2018-01-07T10:28:51.299Z,84.41
2018-01-07T10:30:44.103Z,83.69
2018-01-07T10:31:44.058Z,83.59
2018-01-07T10:33:36.897Z,83.59
2018-01-07T10:34:36.827Z,83.40
2018-01-07T10:36:29.766Z,83.50
2018-01-07T10:37:29.737Z,83.69
2018-01-07T10:39:22.568Z,83.50
2018-01-07T10:40:22.502Z,82.93
2018-01-07T10:42:15.466Z,83.69
2018-01-07T10:43:15.407Z,82.74
2018-01-07T10:45:09.236Z,82.98
2018-01-07T10:46:09.202Z,83.12
2018-01-07T10:48:02.173Z,83.03
2018-01-07T10:49:02.117Z,83.59
2018-01-07T10:50:54.925Z,82.84
2018-01-07T10:51:54.887Z,82.17
2018-01-07T10:53:47.862Z,82.65
2018-01-07T10:54:47.797Z,82.08
2018-01-07T10:56:41.036Z,82.17
2018-01-07T10:57:40.882Z,82.65
2018-01-07T10:59:33.881Z,82.08
2018-01-07T11:00:33.838Z,82.74
2018-01-07T11:02:26.841Z,82.42
2018-01-07T11:03:26.781Z,82.55
2018-01-07T11:05:19.592Z,82.65
2018-01-07T11:06:19.531Z,82.84
2018-01-07T11:08:12.542Z,82.93
2018-01-07T11:09:12.495Z,82.65
2018-01-07T11:11:05.453Z,82.84
2018-01-07T11:12:05.567Z,82.32
2018-01-07T11:13:58.368Z,82.36
2018-01-07T11:14:58.322Z,82.17
2018-01-07T11:16:51.417Z,83.50
2018-01-07T11:17:51.391Z,83.03
2018-01-07T11:19:44.319Z,82.55
2018-01-07T11:20:44.253Z,82.74
2018-01-07T11:22:37.196Z,82.74
2018-01-07T11:23:37.158Z,82.60
2018-01-07T11:25:29.991Z,82.74
2018-01-07T11:26:29.927Z,82.84
2018-01-07T11:28:22.891Z,82.89
2018-01-07T11:29:22.852Z,82.65
2018-01-07T11:31:15.844Z,82.60
2018-01-07T11:32:15.766Z,82.60
2018-01-07T11:34:08.698Z,82.65
2018-01-07T11:35:08.670Z,82.55
2018-01-07T11:37:01.687Z,81.98
2018-01-07T11:38:01.599Z,82.93
2018-01-07T11:39:54.378Z,82.08
2018-01-07T11:40:54.347Z,82.36
2018-01-07T11:42:47.378Z,82.65
2018-01-07T11:43:47.316Z,82.27
2018-01-07T11:45:40.443Z,82.36
2018-01-07T11:46:40.401Z,82.36
2018-01-07T11:48:33.370Z,82.46
2018-01-07T11:49:33.299Z,81.70
2018-01-07T11:54:11.677Z,82.36
2018-01-07T11:55:11.632Z,82.17
2018-01-07T11:57:04.561Z,82.17
2018-01-07T11:58:04.477Z,82.17
2018-01-07T11:59:57.407Z,82.65
2018-01-07T12:00:57.353Z,82.55
2018-01-07T12:02:50.203Z,82.84
2018-01-07T12:03:50.121Z,82.36
2018-01-07T12:05:43.058Z,82.65
2018-01-07T12:06:42.891Z,82.65
2018-01-07T12:08:35.727Z,82.55
2018-01-07T12:09:35.646Z,81.98
2018-01-07T12:11:28.562Z,82.17
2018-01-07T12:12:28.514Z,82.27
2018-01-07T12:14:21.438Z,82.27
2018-01-07T12:15:21.418Z,81.88
2018-01-07T12:17:14.486Z,81.79
2018-01-07T12:18:14.459Z,82.36
2018-01-07T12:20:07.382Z,82.36
2018-01-07T12:21:07.302Z,82.08
2018-01-07T12:23:00.232Z,81.79
2018-01-07T12:24:00.187Z,82.27
2018-01-07T12:25:54.007Z,81.70
2018-01-07T12:26:53.932Z,82.17
2018-01-07T12:28:46.753Z,82.36
2018-01-07T12:29:46.734Z,81.79
2018-01-07T12:35:52.926Z,82.08
2018-01-07T12:36:52.852Z,81.98
2018-01-07T12:38:45.803Z,81.98
2018-01-07T12:39:45.734Z,82.08
2018-01-07T12:41:38.589Z,81.98
2018-01-07T12:42:38.498Z,81.41
2018-01-07T12:44:31.739Z,81.23
2018-01-07T12:45:31.534Z,81.04
2018-01-07T12:47:24.449Z,80.75
2018-01-07T12:48:24.406Z,81.13
2018-01-07T12:50:17.332Z,81.04
2018-01-07T12:51:17.297Z,81.04
2018-01-07T12:53:10.397Z,80.84
2018-01-07T12:54:10.356Z,80.84
2018-01-07T12:56:03.315Z,80.56
2018-01-07T12:57:03.269Z,80.75
2018-01-07T12:58:56.167Z,80.75
2018-01-07T12:59:56.133Z,80.56
2018-01-07T13:01:48.949Z,80.46
2018-01-07T13:02:48.898Z,80.46
2018-01-07T13:04:41.720Z,80.08
2018-01-07T13:05:41.654Z,80.46
2018-01-07T13:07:34.488Z,80.18
2018-01-07T13:08:34.422Z,79.80
2018-01-07T13:10:27.357Z,79.52
2018-01-07T13:11:27.316Z,79.14
2018-01-07T13:13:20.203Z,79.04
2018-01-07T13:14:20.193Z,79.42
2018-01-07T13:16:13.101Z,79.52
2018-01-07T13:17:13.037Z,79.80
2018-01-07T13:19:05.863Z,78.85
2018-01-07T13:20:05.813Z,79.04
2018-01-07T13:21:58.772Z,78.38
2018-01-07T13:22:58.692Z,78.95
2018-01-07T13:24:51.599Z,79.52
2018-01-07T13:25:51.561Z,79.61
2018-01-07T13:27:44.374Z,79.04
2018-01-07T13:28:44.324Z,79.42
2018-01-07T13:30:37.670Z,78.38
2018-01-07T13:31:37.466Z,78.56
2018-01-07T13:33:30.424Z,78.19
2018-01-07T13:34:30.375Z,79.04
2018-01-07T13:36:23.278Z,79.14
2018-01-07T13:37:23.225Z,78.47
2018-01-07T13:39:16.439Z,79.14
2018-01-07T13:40:16.389Z,79.52
2018-01-07T13:42:09.321Z,79.04
2018-01-07T13:43:09.259Z,78.38
2018-01-07T13:45:02.185Z,78.38
2018-01-07T13:46:02.143Z,78.47
2018-01-07T13:47:55.333Z,79.04
2018-01-07T13:48:55.199Z,79.04
2018-01-07T13:50:48.094Z,79.14
2018-01-07T13:51:48.058Z,79.27
2018-01-07T13:53:41.028Z,78.38
2018-01-07T13:54:40.959Z,78.38
2018-01-07T13:56:34.128Z,78.38
2018-01-07T13:57:34.052Z,78.66
2018-01-07T13:59:26.980Z,78.38
2018-01-07T14:00:26.933Z,78.47
2018-01-07T14:02:19.847Z,77.90
2018-01-07T14:03:19.787Z,78.47
2018-01-07T14:05:13.064Z,78.47
2018-01-07T14:06:12.887Z,78.00
2018-01-07T14:08:05.829Z,78.47
2018-01-07T14:09:05.755Z,78.38
2018-01-07T14:10:58.730Z,78.28
2018-01-07T14:11:58.667Z,78.38
2018-01-07T14:13:51.833Z,78.19
2018-01-07T14:14:51.742Z,78.47
2018-01-07T14:16:44.573Z,78.00
2018-01-07T14:17:44.493Z,78.38
2018-01-07T14:19:37.413Z,78.56
2018-01-07T14:20:37.363Z,78.19
2018-01-07T14:22:30.364Z,77.90
2018-01-07T14:23:30.264Z,78.75
2018-01-07T14:25:23.087Z,78.75
2018-01-07T14:26:23.050Z,78.19
2018-01-07T14:28:16.027Z,78.19
2018-01-07T14:29:15.931Z,78.47
2018-01-07T14:31:08.934Z,78.38
2018-01-07T14:32:08.918Z,78.56
2018-01-07T14:34:01.843Z,78.19
2018-01-07T14:35:01.784Z,78.47
2018-01-07T14:36:54.774Z,79.04
2018-01-07T14:37:54.634Z,78.47
2018-01-07T14:39:47.562Z,78.47
2018-01-07T14:40:47.544Z,78.28
2018-01-07T14:42:40.469Z,78.75
2018-01-07T14:43:40.531Z,78.34
2018-01-07T14:45:33.318Z,78.19
2018-01-07T14:46:33.272Z,78.66
2018-01-07T14:48:26.121Z,78.34
2018-01-07T14:49:26.062Z,78.34
2018-01-07T14:51:19.027Z,78.34
2018-01-07T14:52:19.005Z,78.24
2018-01-07T14:54:11.907Z,78.24
2018-01-07T14:55:11.910Z,78.95
2018-01-07T14:57:04.759Z,78.53
2018-01-07T14:58:04.767Z,78.34
2018-01-07T14:59:57.838Z,78.43
2018-01-07T15:00:57.755Z,78.34
2018-01-07T15:02:50.712Z,78.34
2018-01-07T15:03:50.638Z,79.00
2018-01-07T15:05:43.552Z,78.34
2018-01-07T15:06:43.501Z,78.53
2018-01-07T15:08:36.330Z,78.62
2018-01-07T15:09:36.252Z,78.62
2018-01-07T15:11:29.115Z,78.81
2018-01-07T15:12:29.009Z,79.10
2018-01-07T15:14:21.961Z,78.81
2018-01-07T15:15:21.878Z,79.10
2018-01-07T15:17:14.783Z,78.81
2018-01-07T15:18:14.748Z,79.00
2018-01-07T15:20:07.569Z,79.00
2018-01-07T15:21:07.516Z,78.15
2018-01-07T15:23:00.415Z,79.00
2018-01-07T15:24:00.371Z,78.62
2018-01-07T15:25:53.553Z,78.81
2018-01-07T15:26:53.503Z,78.34
2018-01-07T15:28:46.384Z,78.81
2018-01-07T15:29:46.352Z,78.91
2018-01-07T15:31:39.280Z,78.24
2018-01-07T15:32:39.199Z,78.62
2018-01-07T15:34:32.294Z,78.43
2018-01-07T15:35:32.177Z,78.81
2018-01-07T15:37:25.093Z,78.15
2018-01-07T15:38:25.050Z,78.34
2018-01-07T15:40:17.957Z,78.43
2018-01-07T15:41:17.909Z,78.62
2018-01-07T15:43:10.698Z,78.34
2018-01-07T15:44:10.659Z,78.15
2018-01-07T15:46:03.570Z,78.15
2018-01-07T15:47:03.510Z,78.43
2018-01-07T15:48:56.415Z,78.81
2018-01-07T15:49:56.407Z,78.53
2018-01-07T15:51:49.320Z,78.24
2018-01-07T15:52:49.270Z,78.43
2018-01-07T15:54:42.154Z,78.34
2018-01-07T15:55:42.118Z,78.81
2018-01-07T15:57:35.198Z,79.00
2018-01-07T15:58:35.050Z,78.43
2018-01-07T16:00:27.954Z,78.62
2018-01-07T16:01:27.904Z,78.81
2018-01-07T16:03:20.819Z,78.43
2018-01-07T16:04:20.778Z,78.43
2018-01-07T16:06:13.710Z,78.34
2018-01-07T16:07:13.630Z,78.62
2018-01-07T16:09:06.469Z,78.34
2018-01-07T16:10:06.415Z,78.43
2018-01-07T16:11:59.392Z,78.24
2018-01-07T16:12:59.293Z,78.43
2018-01-07T16:14:52.208Z,78.43
2018-01-07T16:15:52.166Z,78.53
2018-01-07T16:17:44.985Z,78.62
2018-01-07T16:18:44.948Z,78.62
2018-01-07T16:20:38.041Z,78.43
2018-01-07T16:21:38.001Z,78.62
2018-01-07T16:23:30.915Z,78.24
2018-01-07T16:24:30.886Z,78.24
2018-01-07T16:26:23.794Z,78.43
2018-01-07T16:27:23.777Z,78.43
2018-01-07T16:29:17.101Z,78.43
2018-01-07T16:30:16.955Z,78.43
2018-01-07T16:32:09.863Z,78.53
2018-01-07T16:33:09.892Z,78.62
2018-01-07T16:35:02.780Z,78.24
2018-01-07T16:36:02.728Z,78.34
2018-01-07T16:37:55.824Z,78.34
2018-01-07T16:38:55.740Z,78.24
2018-01-07T16:40:48.663Z,79.38
2018-01-07T16:41:48.620Z,79.57
2018-01-07T16:43:41.548Z,78.81
2018-01-07T16:44:41.500Z,78.15
2018-01-07T16:46:34.394Z,78.34
2018-01-07T16:47:34.349Z,78.34
2018-01-07T16:49:27.174Z,79.10
2018-01-07T16:50:27.132Z,79.19
2018-01-07T16:52:20.070Z,79.10
2018-01-07T16:53:20.016Z,78.62
2018-01-07T16:55:12.979Z,79.00
2018-01-07T16:56:12.914Z,79.19
2018-01-07T16:58:05.844Z,79.19
2018-01-07T16:59:05.784Z,78.62
2018-01-07T17:00:58.630Z,79.00
2018-01-07T17:01:58.530Z,79.10
2018-01-07T17:03:51.500Z,79.10
2018-01-07T17:04:51.439Z,79.19
2018-01-07T17:06:44.251Z,79.57
2018-01-07T17:07:44.196Z,79.47
2018-01-07T17:09:37.232Z,79.38
2018-01-07T17:10:37.198Z,79.38
2018-01-07T17:12:29.993Z,79.38
2018-01-07T17:13:29.949Z,79.38
2018-01-07T17:15:22.768Z,79.47
2018-01-07T17:16:22.718Z,79.47
2018-01-07T17:18:15.635Z,79.28
2018-01-07T17:19:15.570Z,79.28
2018-01-07T17:21:08.498Z,78.91
2018-01-07T17:22:08.471Z,79.47
2018-01-07T17:24:01.281Z,79.57
2018-01-07T17:25:01.213Z,79.66
2018-01-07T17:26:54.349Z,79.66
2018-01-07T17:27:54.260Z,79.66
2018-01-07T17:29:47.166Z,79.38
2018-01-07T17:30:47.140Z,79.57
2018-01-07T17:32:40.066Z,79.38
2018-01-07T17:33:40.009Z,79.47
2018-01-07T17:35:32.921Z,79.66
2018-01-07T17:36:32.907Z,79.76
2018-01-07T17:38:25.945Z,79.76
2018-01-07T17:39:25.866Z,79.57
2018-01-07T17:41:18.763Z,79.66
2018-01-07T17:42:18.719Z,79.47
2018-01-07T17:44:11.652Z,79.76
2018-01-07T17:45:11.618Z,79.57
2018-01-07T17:47:04.665Z,79.85
2018-01-07T17:48:04.624Z,79.85
2018-01-07T17:49:57.557Z,79.85
2018-01-07T17:50:57.487Z,79.76
2018-01-07T17:52:50.413Z,79.47
2018-01-07T17:53:50.485Z,79.57
2018-01-07T17:55:43.471Z,79.76
2018-01-07T17:56:43.415Z,79.76
2018-01-07T17:58:36.348Z,79.66
2018-01-07T17:59:36.269Z,79.57
2018-01-07T18:01:29.224Z,79.76
2018-01-07T18:02:29.154Z,79.76
2018-01-07T18:04:21.978Z,79.76
2018-01-07T18:05:21.914Z,79.76
2018-01-07T18:07:15.142Z,79.85
2018-01-07T18:08:14.944Z,79.38
2018-01-07T18:10:07.887Z,79.85
2018-01-07T18:11:07.819Z,79.76
2018-01-07T18:13:00.735Z,79.66
2018-01-07T18:14:00.796Z,80.14
2018-01-07T18:15:53.490Z,79.76
2018-01-07T18:16:53.440Z,79.95
2018-01-07T18:18:46.603Z,80.24
2018-01-07T18:19:46.493Z,80.24
2018-01-07T18:21:39.419Z,79.66
2018-01-07T18:22:39.358Z,79.76
2018-01-07T18:24:32.268Z,79.95
2018-01-07T18:25:32.258Z,80.04
2018-01-07T18:27:25.280Z,79.76
2018-01-07T18:28:25.230Z,79.57
2018-01-07T18:30:18.170Z,80.24
2018-01-07T18:31:18.159Z,80.43
2018-01-07T18:33:11.131Z,79.95
2018-01-07T18:34:11.068Z,80.04
2018-01-07T18:36:03.976Z,80.24
2018-01-07T18:37:03.950Z,80.33
2018-01-07T18:38:56.946Z,80.24
2018-01-07T18:39:56.884Z,80.14